createdAt,value
2023-05-05T00:00:15.626Z,40.47
2023-05-05T00:02:42.164Z,40.63
2023-05-05T00:05:08.801Z,40.59
2023-05-05T00:07:35.201Z,40.56
2023-05-05T00:10:01.970Z,40.29
2023-05-05T00:12:28.596Z,40.35
2023-05-05T00:14:55.004Z,40.28
2023-05-05T00:17:21.705Z,40.27
2023-05-05T00:19:48.104Z,40.35
2023-05-05T00:22:15.365Z,40.11
2023-05-05T00:24:41.799Z,40.22
2023-05-05T00:27:08.207Z,40.60
2023-05-05T00:29:34.559Z,40.22
2023-05-05T00:32:01.487Z,39.99
2023-05-05T00:34:27.856Z,39.98
2023-05-05T00:36:54.699Z,40.13
2023-05-05T00:39:21.202Z,39.88
2023-05-05T00:41:47.548Z,39.82
2023-05-05T00:44:14.996Z,39.91
2023-05-05T00:46:42.448Z,39.82
2023-05-05T00:49:09.750Z,39.62
2023-05-05T00:51:36.572Z,39.61
2023-05-05T00:54:02.995Z,39.79
2023-05-05T00:56:29.648Z,39.77
2023-05-05T00:58:56.411Z,39.62
2023-05-05T01:01:23.071Z,39.53
2023-05-05T01:03:49.645Z,39.47
2023-05-05T01:06:39.941Z,39.39
2023-05-05T01:09:36.370Z,39.40
2023-05-05T01:12:14.525Z,39.00
2023-05-05T01:14:55.996Z,39.31
2023-05-05T01:17:29.911Z,39.04
2023-05-05T01:20:12.532Z,38.93
2023-05-05T01:22:47.276Z,38.89
2023-05-05T01:25:30.752Z,38.76
2023-05-05T01:28:28.545Z,38.81
2023-05-05T01:31:03.188Z,38.82
2023-05-05T01:33:36.792Z,38.77
2023-05-05T01:36:12.103Z,38.82
2023-05-05T01:38:41.199Z,39.22
2023-05-05T01:41:17.168Z,38.81
2023-05-05T01:43:45.748Z,38.29
2023-05-05T01:46:13.756Z,38.74
2023-05-05T01:48:42.584Z,38.89
2023-05-05T01:51:10.382Z,38.84
2023-05-05T01:53:37.324Z,38.88
2023-05-05T01:56:04.842Z,38.82
2023-05-05T01:58:32.759Z,38.95
2023-05-05T02:01:00.825Z,39.24
2023-05-05T02:03:28.798Z,39.37
2023-05-05T02:05:57.131Z,39.24
2023-05-05T02:08:25.965Z,39.29
2023-05-05T02:10:54.010Z,39.36
2023-05-05T02:13:21.244Z,39.45
2023-05-05T02:15:49.487Z,39.48
2023-05-05T02:18:16.508Z,39.61
2023-05-05T02:20:43.713Z,39.44
2023-05-05T02:23:10.215Z,39.73
2023-05-05T02:25:50.375Z,39.64
2023-05-05T02:28:22.928Z,39.58
2023-05-05T02:30:59.946Z,39.82
2023-05-05T02:33:29.228Z,40.01
2023-05-05T02:35:59.529Z,39.76
2023-05-05T02:38:29.266Z,39.98
2023-05-05T02:40:58.032Z,40.03
2023-05-05T02:43:25.658Z,40.03
2023-05-05T02:45:52.135Z,40.28
2023-05-05T02:48:18.510Z,40.15
2023-05-05T02:50:44.895Z,40.04
2023-05-05T02:53:11.334Z,40.07
2023-05-05T02:55:54.318Z,39.97
2023-05-05T02:58:31.463Z,39.70
2023-05-05T03:01:03.832Z,40.10
2023-05-05T03:03:46.914Z,39.91
2023-05-05T03:06:19.515Z,39.83
2023-05-05T03:09:18.508Z,39.92
2023-05-05T03:11:50.905Z,40.46
2023-05-05T03:14:19.155Z,39.98
2023-05-05T03:16:46.959Z,40.15
2023-05-05T03:19:18.352Z,40.30
2023-05-05T03:21:45.322Z,40.67
2023-05-05T03:24:19.359Z,40.24
2023-05-05T03:26:47.723Z,40.45
2023-05-05T03:29:14.649Z,40.29
2023-05-05T03:31:41.320Z,40.44
2023-05-05T03:34:08.455Z,40.41
2023-05-05T03:36:35.820Z,40.52
2023-05-05T03:39:02.300Z,40.32
2023-05-05T03:41:28.776Z,40.29
2023-05-05T03:43:55.146Z,40.39
2023-05-05T03:46:21.659Z,40.33
2023-05-05T03:48:48.605Z,40.39
2023-05-05T03:51:15.662Z,40.52
2023-05-05T03:53:42.122Z,40.72
2023-05-05T03:56:08.639Z,40.63
2023-05-05T03:58:35.066Z,40.46
2023-05-05T04:01:01.751Z,40.79
2023-05-05T04:03:28.204Z,40.83
2023-05-05T04:05:54.868Z,40.68
2023-05-05T04:08:21.209Z,41.04
2023-05-05T04:10:47.554Z,40.95
2023-05-05T04:13:14.068Z,40.76
2023-05-05T04:15:45.638Z,40.62
2023-05-05T04:18:12.267Z,40.94
2023-05-05T04:20:38.692Z,41.04
2023-05-05T04:23:05.049Z,41.28
2023-05-05T04:25:31.626Z,40.93
2023-05-05T04:27:58.036Z,41.10
2023-05-05T04:30:24.426Z,40.99
2023-05-05T04:32:51.153Z,40.60
2023-05-05T04:35:17.730Z,40.81
2023-05-05T04:37:44.153Z,40.80
2023-05-05T04:40:11.002Z,41.13
2023-05-05T04:42:37.624Z,40.98
2023-05-05T04:45:04.584Z,40.97
2023-05-05T04:47:31.261Z,41.05
2023-05-05T04:49:57.651Z,41.58
2023-05-05T04:52:24.004Z,42.18
2023-05-05T04:54:50.417Z,42.32
2023-05-05T04:57:16.750Z,42.67
2023-05-05T04:59:43.161Z,43.19
2023-05-05T05:02:09.590Z,43.55
2023-05-05T05:04:36.131Z,43.57
2023-05-05T05:07:02.570Z,43.94
2023-05-05T05:09:29.034Z,44.24
2023-05-05T05:11:59.864Z,44.37
2023-05-05T05:14:28.018Z,44.66
2023-05-05T05:16:54.597Z,45.00
2023-05-05T05:19:21.406Z,45.32
2023-05-05T05:21:47.954Z,45.45
2023-05-05T05:24:14.304Z,45.57
2023-05-05T05:26:40.716Z,45.87
2023-05-05T05:29:07.132Z,45.78
2023-05-05T05:31:34.352Z,46.26
2023-05-05T05:34:00.950Z,46.82
2023-05-05T05:36:27.384Z,47.13
2023-05-05T05:38:53.829Z,46.87
2023-05-05T05:41:20.167Z,47.58
2023-05-05T05:43:46.496Z,47.94
2023-05-05T05:46:12.916Z,48.07
2023-05-05T05:48:39.428Z,47.90
2023-05-05T05:51:05.853Z,48.51
2023-05-05T05:53:32.701Z,48.29
2023-05-05T05:55:59.155Z,48.63
2023-05-05T05:58:25.664Z,48.60
2023-05-05T06:00:52.121Z,48.57
2023-05-05T06:03:18.663Z,48.78
2023-05-05T06:05:46.302Z,48.71
2023-05-05T06:08:12.843Z,48.95
2023-05-05T06:10:39.818Z,48.71
2023-05-05T06:13:06.454Z,49.13
2023-05-05T06:15:32.943Z,48.57
2023-05-05T06:17:59.377Z,48.67
2023-05-05T06:20:26.149Z,48.87
2023-05-05T06:22:52.913Z,48.92
2023-05-05T06:25:19.256Z,48.52
2023-05-05T06:27:46.166Z,48.41
2023-05-05T06:30:13.063Z,48.76
2023-05-05T06:32:39.491Z,48.60
2023-05-05T06:35:07.077Z,48.30
2023-05-05T06:37:33.444Z,48.02
2023-05-05T06:39:59.960Z,48.24
2023-05-05T06:42:26.409Z,47.78
2023-05-05T06:44:52.934Z,47.60
2023-05-05T06:47:19.437Z,47.52
2023-05-05T06:49:45.812Z,47.44
2023-05-05T06:52:12.647Z,47.63
2023-05-05T06:54:39.011Z,47.77
2023-05-05T06:57:05.549Z,47.43
2023-05-05T06:59:32.373Z,46.70
2023-05-05T07:01:59.274Z,46.75
2023-05-05T07:04:26.699Z,46.76
2023-05-05T07:06:55.157Z,46.94
2023-05-05T07:09:21.537Z,47.06
2023-05-05T07:11:47.914Z,45.92
2023-05-05T07:14:14.401Z,46.46
2023-05-05T07:16:40.823Z,47.10
2023-05-05T07:19:07.344Z,46.58
2023-05-05T07:21:34.059Z,46.92
2023-05-05T07:24:01.120Z,46.30
2023-05-05T07:26:27.633Z,46.11
2023-05-05T07:28:56.047Z,45.96
2023-05-05T07:31:22.593Z,45.94
2023-05-05T07:33:49.724Z,46.18
2023-05-05T07:36:17.883Z,45.61
2023-05-05T07:38:44.426Z,45.76
2023-05-05T07:41:13.048Z,45.45
2023-05-05T07:43:44.617Z,45.13
2023-05-05T07:46:11.881Z,45.25
2023-05-05T07:48:41.665Z,45.21
2023-05-05T07:51:08.818Z,44.79
2023-05-05T07:53:35.254Z,44.46
2023-05-05T07:56:01.787Z,44.27
2023-05-05T07:58:28.210Z,44.73
2023-05-05T08:00:54.640Z,44.14
2023-05-05T08:03:24.326Z,44.23
2023-05-05T08:05:54.098Z,43.97
2023-05-05T08:08:24.306Z,44.07
2023-05-05T08:10:51.867Z,44.07
2023-05-05T08:13:18.514Z,43.88
2023-05-05T08:15:45.336Z,44.07
2023-05-05T08:18:11.772Z,44.66
2023-05-05T08:20:38.158Z,44.77
2023-05-05T08:23:04.840Z,44.79
2023-05-05T08:25:31.168Z,44.87
2023-05-05T08:27:57.613Z,45.10
2023-05-05T08:30:24.131Z,44.68
2023-05-05T08:32:50.678Z,44.41
2023-05-05T08:35:17.978Z,44.57
2023-05-05T08:37:44.393Z,44.58
2023-05-05T08:40:14.468Z,44.42
2023-05-05T08:42:41.919Z,44.34
2023-05-05T08:45:10.222Z,44.36
2023-05-05T08:47:38.734Z,44.24
2023-05-05T08:50:05.883Z,44.17
2023-05-05T08:52:40.385Z,44.03
2023-05-05T08:55:19.942Z,43.62
2023-05-05T08:57:51.822Z,44.23
2023-05-05T09:00:19.784Z,44.27
2023-05-05T09:02:46.943Z,44.36
2023-05-05T09:05:13.534Z,44.44
2023-05-05T09:07:43.860Z,43.29
2023-05-05T09:10:12.024Z,43.22
2023-05-05T09:12:41.971Z,42.73
2023-05-05T09:15:10.478Z,42.77
2023-05-05T09:17:37.790Z,42.86
2023-05-05T09:20:09.154Z,42.83
2023-05-05T09:22:37.871Z,42.41
2023-05-05T09:25:05.933Z,41.94
2023-05-05T09:27:40.956Z,41.95
2023-05-05T09:30:08.646Z,41.78
2023-05-05T09:32:49.179Z,41.66
2023-05-05T09:35:16.691Z,41.65
2023-05-05T09:37:43.572Z,42.19
2023-05-05T09:40:11.392Z,42.12
2023-05-05T09:42:38.850Z,41.65
2023-05-05T09:45:26.566Z,41.97
2023-05-05T09:47:58.773Z,41.14
2023-05-05T09:50:29.993Z,40.66
2023-05-05T09:52:58.042Z,40.13
2023-05-05T09:55:25.051Z,39.78
2023-05-05T09:57:51.630Z,40.13
2023-05-05T10:00:18.357Z,39.91
2023-05-05T10:02:45.839Z,39.68
2023-05-05T10:05:15.533Z,39.61
2023-05-05T10:07:43.741Z,39.46
2023-05-05T10:10:17.432Z,39.32
2023-05-05T10:12:46.467Z,39.17
2023-05-05T10:15:15.630Z,39.50
2023-05-05T10:20:19.059Z,38.86
2023-05-05T10:22:54.379Z,39.06
2023-05-05T10:25:28.920Z,38.87
2023-05-05T10:27:57.745Z,38.87
2023-05-05T10:30:28.228Z,39.11
2023-05-05T10:33:18.250Z,39.09
2023-05-05T10:35:57.184Z,38.63
2023-05-05T10:38:26.832Z,38.84
2023-05-05T10:40:54.937Z,38.57
2023-05-05T10:43:21.671Z,38.33
2023-05-05T10:45:48.544Z,38.79
2023-05-05T10:48:44.574Z,38.77
2023-05-05T10:51:41.147Z,38.40
2023-05-05T10:54:32.659Z,37.65
2023-05-05T10:57:02.580Z,36.70
2023-05-05T10:59:37.957Z,36.26
2023-05-05T11:02:31.422Z,36.29
2023-05-05T11:05:18.117Z,36.32
2023-05-05T11:07:46.339Z,35.86
2023-05-05T11:10:19.963Z,35.78
2023-05-05T11:12:52.298Z,35.87
2023-05-05T11:15:27.973Z,35.94
2023-05-05T11:17:56.376Z,35.82
2023-05-05T11:20:41.948Z,36.04
2023-05-05T11:23:08.273Z,35.66
2023-05-05T11:25:34.575Z,35.97
2023-05-05T11:28:09.313Z,35.63
2023-05-05T11:30:55.821Z,35.92
2023-05-05T11:33:36.949Z,36.10
2023-05-05T11:36:13.135Z,36.02
2023-05-05T11:38:55.599Z,35.77
2023-05-05T11:41:36.917Z,35.61
2023-05-05T11:44:20.245Z,35.36
2023-05-05T11:46:52.606Z,35.58
2023-05-05T11:49:31.843Z,35.55
2023-05-05T11:52:03.812Z,35.00
2023-05-05T11:54:30.921Z,34.86
2023-05-05T11:57:01.913Z,34.33
2023-05-05T11:59:28.243Z,34.61
2023-05-05T12:01:55.122Z,34.18
2023-05-05T12:04:21.609Z,33.84
2023-05-05T12:06:49.006Z,33.91
2023-05-05T12:09:20.149Z,33.77
2023-05-05T12:11:50.826Z,33.24
2023-05-05T12:14:17.187Z,33.19
2023-05-05T12:16:56.246Z,33.18
2023-05-05T12:19:30.017Z,33.01
2023-05-05T12:21:56.959Z,33.20
2023-05-05T12:24:23.490Z,33.20
2023-05-05T12:26:49.910Z,33.19
2023-05-05T12:29:26.098Z,33.64
2023-05-05T12:31:52.915Z,33.46
2023-05-05T12:34:19.613Z,32.70
2023-05-05T12:36:46.278Z,32.77
2023-05-05T12:39:13.293Z,32.82
2023-05-05T12:41:40.080Z,32.69
2023-05-05T12:44:06.860Z,32.77
2023-05-05T12:46:48.951Z,32.77
2023-05-05T12:49:16.640Z,32.95
2023-05-05T12:51:56.577Z,32.67
2023-05-05T12:54:24.913Z,32.66
2023-05-05T12:56:51.442Z,32.51
2023-05-05T12:59:21.009Z,32.69
2023-05-05T13:01:56.122Z,33.07
2023-05-05T13:04:24.632Z,32.49
2023-05-05T13:07:11.085Z,32.58
2023-05-05T13:09:37.592Z,32.44
2023-05-05T13:12:04.804Z,32.42
2023-05-05T13:14:34.739Z,32.08
2023-05-05T13:17:01.295Z,32.00
2023-05-05T13:19:27.734Z,32.31
2023-05-05T13:21:54.823Z,32.27
2023-05-05T13:24:28.745Z,32.06
2023-05-05T13:27:05.501Z,32.25
2023-05-05T13:29:32.993Z,32.43
2023-05-05T13:31:59.827Z,31.16
2023-05-05T13:34:26.887Z,30.97
2023-05-05T13:36:53.559Z,30.80
2023-05-05T13:39:20.166Z,31.21
2023-05-05T13:41:46.778Z,31.41
2023-05-05T13:44:14.048Z,31.35
2023-05-05T13:46:42.443Z,30.83
2023-05-05T13:49:08.901Z,30.93
2023-05-05T13:51:35.415Z,31.31
2023-05-05T13:54:01.899Z,31.17
2023-05-05T13:56:28.525Z,31.74
2023-05-05T13:58:54.914Z,31.81
2023-05-05T14:01:21.341Z,31.26
2023-05-05T14:03:47.821Z,31.20
2023-05-05T14:06:14.213Z,31.11
2023-05-05T14:08:40.571Z,31.52
2023-05-05T14:11:06.956Z,32.05
2023-05-05T14:13:33.372Z,31.89
2023-05-05T14:15:59.940Z,32.21
2023-05-05T14:18:26.518Z,33.38
2023-05-05T14:20:53.058Z,33.85
2023-05-05T14:23:21.291Z,35.25
2023-05-05T14:25:47.666Z,35.86
2023-05-05T14:28:14.152Z,36.98
2023-05-05T14:30:40.500Z,38.81
2023-05-05T14:33:06.960Z,39.47
2023-05-05T14:35:33.467Z,40.57
2023-05-05T14:37:59.811Z,42.10
2023-05-05T14:40:26.328Z,43.03
2023-05-05T14:42:52.769Z,44.52
2023-05-05T14:45:19.176Z,45.43
2023-05-05T14:47:45.621Z,46.50
2023-05-05T14:50:12.162Z,47.17
2023-05-05T14:52:40.179Z,47.78
2023-05-05T14:55:07.319Z,49.18
2023-05-05T14:57:34.513Z,49.84
2023-05-05T15:00:00.908Z,51.06
2023-05-05T15:02:27.333Z,51.38
2023-05-05T15:04:53.741Z,51.07
2023-05-05T15:07:21.240Z,52.23
2023-05-05T15:09:47.666Z,53.06
2023-05-05T15:12:14.069Z,53.83
2023-05-05T15:14:40.823Z,53.03
2023-05-05T15:17:07.179Z,53.25
2023-05-05T15:19:33.616Z,52.74
2023-05-05T15:21:59.989Z,53.53
2023-05-05T15:24:26.353Z,53.79
2023-05-05T15:26:52.710Z,53.72
2023-05-05T15:29:19.162Z,53.94
2023-05-05T15:31:45.571Z,53.51
2023-05-05T15:34:12.124Z,54.51
2023-05-05T15:36:38.503Z,55.15
2023-05-05T15:39:05.025Z,56.16
2023-05-05T15:41:34.206Z,55.87
2023-05-05T15:44:02.001Z,56.51
2023-05-05T15:46:32.044Z,56.45
2023-05-05T15:48:58.509Z,57.12
2023-05-05T15:51:24.925Z,57.71
2023-05-05T15:53:53.287Z,57.59
2023-05-05T15:56:19.728Z,57.81
2023-05-05T15:58:48.852Z,56.94
2023-05-05T16:01:15.532Z,57.69
2023-05-05T16:03:42.364Z,57.89
2023-05-05T16:06:11.488Z,57.11
2023-05-05T16:08:38.776Z,57.18
2023-05-05T16:11:05.602Z,57.13
2023-05-05T16:13:31.985Z,57.40
2023-05-05T16:15:58.348Z,57.63
2023-05-05T16:18:24.724Z,58.08
2023-05-05T16:20:51.173Z,58.45
2023-05-05T16:23:17.757Z,58.36
2023-05-05T16:25:44.709Z,57.56
2023-05-05T16:28:11.085Z,58.02
2023-05-05T16:30:38.060Z,57.92
2023-05-05T16:33:04.471Z,58.18
2023-05-05T16:35:30.931Z,57.64
2023-05-05T16:37:57.510Z,57.98
2023-05-05T16:40:23.905Z,58.15
2023-05-05T16:42:50.349Z,57.49
2023-05-05T16:45:16.689Z,57.06
2023-05-05T16:47:43.153Z,57.20
2023-05-05T16:50:09.954Z,56.63
2023-05-05T16:52:36.294Z,56.89
2023-05-05T16:55:04.726Z,57.47
2023-05-05T16:57:31.841Z,57.55
2023-05-05T16:59:58.222Z,56.98
2023-05-05T17:02:24.684Z,55.76
2023-05-05T17:04:51.116Z,55.72
2023-05-05T17:07:17.492Z,55.88
2023-05-05T17:09:43.896Z,55.42
2023-05-05T17:12:10.276Z,55.18
2023-05-05T17:14:36.682Z,56.30
2023-05-05T17:17:03.080Z,55.42
2023-05-05T17:19:29.416Z,56.05
2023-05-05T17:21:55.883Z,55.15
2023-05-05T17:24:22.662Z,54.77
2023-05-05T17:26:49.076Z,55.05
2023-05-05T17:29:19.675Z,54.42
2023-05-05T17:31:46.583Z,54.54
2023-05-05T17:34:13.031Z,54.31
2023-05-05T17:36:39.432Z,54.66
2023-05-05T17:39:06.107Z,54.05
2023-05-05T17:41:32.532Z,54.67
2023-05-05T17:43:59.402Z,55.15
2023-05-05T17:46:26.047Z,56.05
2023-05-05T17:48:52.601Z,56.40
2023-05-05T17:51:19.122Z,56.35
2023-05-05T17:53:45.521Z,55.41
2023-05-05T17:56:11.970Z,54.23
2023-05-05T17:58:38.395Z,53.88
2023-05-05T18:01:04.882Z,52.98
2023-05-05T18:03:31.538Z,52.73
2023-05-05T18:05:58.103Z,52.27
2023-05-05T18:08:24.470Z,50.80
2023-05-05T18:10:50.889Z,49.46
2023-05-05T18:13:17.288Z,48.51
2023-05-05T18:15:43.748Z,48.83
2023-05-05T18:18:10.295Z,48.68
2023-05-05T18:20:36.698Z,49.22
2023-05-05T18:23:03.042Z,49.24
2023-05-05T18:25:29.502Z,48.50
2023-05-05T18:27:58.433Z,48.97
2023-05-05T18:30:24.904Z,49.08
2023-05-05T18:32:51.499Z,49.06
2023-05-05T18:35:17.972Z,49.32
2023-05-05T18:37:44.504Z,49.94
2023-05-05T18:40:11.230Z,50.02
2023-05-05T18:42:37.663Z,50.22
2023-05-05T18:45:04.625Z,50.53
2023-05-05T18:47:31.121Z,50.84
2023-05-05T18:49:57.510Z,51.05
2023-05-05T18:52:24.508Z,51.60
2023-05-05T18:54:50.899Z,51.45
2023-05-05T18:57:17.352Z,51.58
2023-05-05T18:59:43.705Z,51.22
2023-05-05T19:02:10.130Z,52.08
2023-05-05T19:04:37.939Z,52.41
2023-05-05T19:07:04.733Z,52.79
2023-05-05T19:09:31.373Z,53.15
2023-05-05T19:11:57.809Z,52.77
2023-05-05T19:14:24.323Z,53.61
2023-05-05T19:16:51.282Z,53.82
2023-05-05T19:19:18.217Z,53.55
2023-05-05T19:21:44.569Z,54.20
2023-05-05T19:24:11.541Z,54.32
2023-05-05T19:26:37.956Z,54.07
2023-05-05T19:29:04.401Z,54.43
2023-05-05T19:31:31.325Z,54.57
2023-05-05T19:34:00.450Z,54.38
2023-05-05T19:36:27.753Z,55.16
2023-05-05T19:38:55.443Z,54.98
2023-05-05T19:41:21.874Z,55.13
2023-05-05T19:43:49.844Z,55.39
2023-05-05T19:46:17.155Z,55.58
2023-05-05T19:48:44.133Z,55.56
2023-05-05T19:51:10.559Z,55.62
2023-05-05T19:53:37.008Z,55.82
2023-05-05T19:56:04.877Z,56.08
2023-05-05T19:58:51.769Z,55.97
2023-05-05T20:01:18.255Z,56.96
2023-05-05T20:03:44.685Z,57.21
2023-05-05T20:06:11.281Z,57.63
2023-05-05T20:08:39.072Z,57.47
2023-05-05T20:11:05.503Z,57.62
2023-05-05T20:13:34.271Z,58.08
2023-05-05T20:16:00.930Z,58.16
2023-05-05T20:18:27.373Z,58.29
2023-05-05T20:20:53.810Z,58.44
2023-05-05T20:23:20.290Z,58.49
2023-05-05T20:25:46.733Z,58.64
2023-05-05T20:28:13.075Z,59.10
2023-05-05T20:30:39.508Z,58.88
2023-05-05T20:33:05.919Z,58.89
2023-05-05T20:35:32.400Z,58.91
2023-05-05T20:37:58.825Z,59.34
2023-05-05T20:40:25.464Z,58.88
2023-05-05T20:42:51.801Z,59.30
2023-05-05T20:45:18.554Z,59.55
2023-05-05T20:47:45.006Z,59.40
2023-05-05T20:50:11.949Z,59.00
2023-05-05T20:52:38.577Z,59.14
2023-05-05T20:55:05.348Z,58.92
2023-05-05T20:57:31.854Z,58.62
2023-05-05T20:59:58.292Z,58.70
2023-05-05T21:02:24.786Z,58.86
2023-05-05T21:04:51.465Z,59.17
2023-05-05T21:07:17.790Z,58.84
2023-05-05T21:09:47.078Z,58.57
2023-05-05T21:12:13.416Z,59.11
2023-05-05T21:14:44.689Z,58.91
2023-05-05T21:17:11.028Z,59.21
2023-05-05T21:19:37.375Z,59.34
2023-05-05T21:22:04.365Z,59.38
2023-05-05T21:24:30.721Z,59.53
2023-05-05T21:26:57.179Z,59.49
2023-05-05T21:29:27.012Z,59.78
2023-05-05T21:31:53.492Z,59.66
2023-05-05T21:34:20.157Z,59.50
2023-05-05T21:36:46.541Z,59.71
2023-05-05T21:39:12.920Z,59.81
2023-05-05T21:41:39.302Z,59.87
2023-05-05T21:44:05.714Z,59.75
2023-05-05T21:46:32.161Z,59.51
2023-05-05T21:48:58.552Z,59.68
2023-05-05T21:51:25.279Z,59.71
2023-05-05T21:53:51.657Z,59.69
2023-05-05T21:56:18.018Z,59.74
2023-05-05T21:58:44.623Z,59.93
2023-05-05T22:01:12.050Z,59.89
2023-05-05T22:03:38.662Z,59.81
2023-05-05T22:06:05.319Z,59.83
2023-05-05T22:08:31.783Z,59.83
2023-05-05T22:10:58.120Z,59.87
2023-05-05T22:13:24.509Z,60.08
2023-05-05T22:15:51.090Z,59.84
2023-05-05T22:18:17.542Z,60.18
2023-05-05T22:20:43.968Z,59.84
2023-05-05T22:23:10.692Z,59.98
2023-05-05T22:25:37.101Z,59.37
2023-05-05T22:28:04.098Z,59.82
2023-05-05T22:30:30.833Z,59.80
2023-05-05T22:32:57.313Z,59.35
2023-05-05T22:35:23.741Z,59.83
2023-05-05T22:37:50.125Z,59.58
2023-05-05T22:40:16.517Z,59.76
2023-05-05T22:42:43.005Z,59.76
2023-05-05T22:45:10.303Z,59.88
2023-05-05T22:47:37.113Z,59.73
2023-05-05T22:50:03.609Z,60.25
2023-05-05T22:52:29.951Z,60.10
2023-05-05T22:54:56.483Z,60.33
2023-05-05T22:57:23.221Z,60.39
2023-05-05T22:59:50.119Z,60.53
2023-05-05T23:02:16.494Z,60.54
2023-05-05T23:04:44.564Z,60.80
2023-05-05T23:07:14.392Z,60.53
2023-05-05T23:09:40.921Z,61.04
2023-05-05T23:12:07.380Z,61.14
2023-05-05T23:14:33.888Z,60.98
2023-05-05T23:17:00.776Z,60.86
2023-05-05T23:19:28.988Z,61.19
2023-05-05T23:21:55.732Z,60.94
2023-05-05T23:24:22.136Z,60.79
2023-05-05T23:26:48.506Z,60.78
2023-05-05T23:29:14.973Z,60.68
2023-05-05T23:31:41.406Z,60.58
2023-05-05T23:34:07.747Z,60.62
2023-05-05T23:36:34.153Z,60.24
2023-05-05T23:39:00.553Z,60.55
2023-05-05T23:41:27.022Z,60.47
2023-05-05T23:43:53.417Z,60.91
2023-05-05T23:46:19.795Z,60.82
2023-05-05T23:48:46.224Z,60.79
2023-05-05T23:51:12.550Z,60.69
2023-05-05T23:53:38.888Z,61.00
2023-05-05T23:56:05.665Z,60.70
2023-05-05T23:58:32.001Z,60.53
